Terminal Aerodrome Forecast
Issued by NWS

Home | Current Version | Previous Version | Text Only | Print | Product List | Glossary On
Versions: 1 2 3 4 5 6 7 8 9 10 11 12 13
000
FTUS43 KMQT 301126
TAFSAW
TAF
KSAW 301126Z 3012/3112 27011G18KT P6SM SKC
     FM301500 30015G25KT P6SM SCT060
     FM302300 29009KT P6SM SCT070
     FM310300 25006KT P6SM FEW090=

USA.gov is the U.S. government's official web portal to all federal, state and local government web resources and services.